sensor_id;sensor_type;location;lat;lon;timestamp;temperature;humidity
45945;DHT22;31655;48.972;10.686;2022-10-16T00:01:28;14.00;99.90
45945;DHT22;31655;48.972;10.686;2022-10-16T00:03:55;13.90;99.90
45945;DHT22;31655;48.972;10.686;2022-10-16T00:06:22;13.90;99.90
45945;DHT22;31655;48.972;10.686;2022-10-16T00:08:48;14.00;99.90
45945;DHT22;31655;48.972;10.686;2022-10-16T00:11:20;14.00;99.90
45945;DHT22;31655;48.972;10.686;2022-10-16T00:13:49;14.10;99.90
45945;DHT22;31655;48.972;10.686;2022-10-16T00:16:16;14.10;99.90
45945;DHT22;31655;48.972;10.686;2022-10-16T00:18:42;14.10;99.90
45945;DHT22;31655;48.972;10.686;2022-10-16T00:21:11;14.10;99.90
45945;DHT22;31655;48.972;10.686;2022-10-16T00:23:37;14.10;99.90
45945;DHT22;31655;48.972;10.686;2022-10-16T00:26:05;14.10;99.90
45945;DHT22;31655;48.972;10.686;2022-10-16T00:28:32;14.20;99.90
45945;DHT22;31655;48.972;10.686;2022-10-16T00:33:25;14.10;99.90
45945;DHT22;31655;48.972;10.686;2022-10-16T00:35:50;14.00;99.90
45945;DHT22;31655;48.972;10.686;2022-10-16T00:38:16;14.00;99.90
45945;DHT22;31655;48.972;10.686;2022-10-16T00:40:42;13.90;99.90
45945;DHT22;31655;48.972;10.686;2022-10-16T00:43:40;13.90;99.90
45945;DHT22;31655;48.972;10.686;2022-10-16T00:48:36;13.90;99.90
45945;DHT22;31655;48.972;10.686;2022-10-16T00:51:04;13.80;99.90
45945;DHT22;31655;48.972;10.686;2022-10-16T00:53:31;13.90;99.90
45945;DHT22;31655;48.972;10.686;2022-10-16T00:55:57;13.80;99.90
45945;DHT22;31655;48.972;10.686;2022-10-16T00:58:23;13.80;99.90
45945;DHT22;31655;48.972;10.686;2022-10-16T01:00:49;13.70;99.90
45945;DHT22;31655;48.972;10.686;2022-10-16T01:03:33;13.70;99.90
45945;DHT22;31655;48.972;10.686;2022-10-16T01:06:16;13.70;99.90
45945;DHT22;31655;48.972;10.686;2022-10-16T01:09:11;13.70;99.90
45945;DHT22;31655;48.972;10.686;2022-10-16T01:17:18;13.80;99.90
45945;DHT22;31655;48.972;10.686;2022-10-16T01:28:06;13.80;99.90
45945;DHT22;31655;48.972;10.686;2022-10-16T01:30:36;13.80;99.90
45945;DHT22;31655;48.972;10.686;2022-10-16T01:33:21;13.80;99.90
45945;DHT22;31655;48.972;10.686;2022-10-16T01:35:53;13.80;99.90
45945;DHT22;31655;48.972;10.686;2022-10-16T01:38:29;13.80;99.90
45945;DHT22;31655;48.972;10.686;2022-10-16T01:41:12;13.90;99.90
45945;DHT22;31655;48.972;10.686;2022-10-16T01:43:49;13.90;99.90
45945;DHT22;31655;48.972;10.686;2022-10-16T01:46:20;13.90;99.90
45945;DHT22;31655;48.972;10.686;2022-10-16T01:48:48;13.90;99.90
45945;DHT22;31655;48.972;10.686;2022-10-16T01:51:17;13.80;99.90
45945;DHT22;31655;48.972;10.686;2022-10-16T01:53:47;13.80;99.90
45945;DHT22;31655;48.972;10.686;2022-10-16T01:56:15;13.80;99.90
45945;DHT22;31655;48.972;10.686;2022-10-16T01:58:48;13.80;99.90
45945;DHT22;31655;48.972;10.686;2022-10-16T02:01:16;13.80;99.90
45945;DHT22;31655;48.972;10.686;2022-10-16T02:03:44;13.70;99.90
45945;DHT22;31655;48.972;10.686;2022-10-16T02:06:11;13.70;99.90
45945;DHT22;31655;48.972;10.686;2022-10-16T02:13:39;13.70;99.90
45945;DHT22;31655;48.972;10.686;2022-10-16T02:16:09;13.70;99.90
45945;DHT22;31655;48.972;10.686;2022-10-16T02:18:35;13.80;99.90
45945;DHT22;31655;48.972;10.686;2022-10-16T02:24:02;13.80;99.90
45945;DHT22;31655;48.972;10.686;2022-10-16T02:26:35;13.70;99.90
45945;DHT22;31655;48.972;10.686;2022-10-16T02:29:07;13.70;99.90
45945;DHT22;31655;48.972;10.686;2022-10-16T02:31:35;13.70;99.90
45945;DHT22;31655;48.972;10.686;2022-10-16T02:34:04;13.70;99.90
45945;DHT22;31655;48.972;10.686;2022-10-16T02:36:31;13.60;99.90
45945;DHT22;31655;48.972;10.686;2022-10-16T02:38:58;13.60;99.90
45945;DHT22;31655;48.972;10.686;2022-10-16T02:41:25;13.60;99.90
45945;DHT22;31655;48.972;10.686;2022-10-16T02:43:51;13.60;99.90
45945;DHT22;31655;48.972;10.686;2022-10-16T02:46:17;13.60;99.90
45945;DHT22;31655;48.972;10.686;2022-10-16T02:48:43;13.60;99.90
45945;DHT22;31655;48.972;10.686;2022-10-16T02:51:09;13.60;99.90
45945;DHT22;31655;48.972;10.686;2022-10-16T02:53:34;13.60;99.90
45945;DHT22;31655;48.972;10.686;2022-10-16T02:56:00;13.60;99.90
45945;DHT22;31655;48.972;10.686;2022-10-16T03:00:51;13.50;99.90
45945;DHT22;31655;48.972;10.686;2022-10-16T03:03:17;13.50;99.90
45945;DHT22;31655;48.972;10.686;2022-10-16T03:05:43;13.40;99.90
45945;DHT22;31655;48.972;10.686;2022-10-16T03:08:11;13.40;99.90
45945;DHT22;31655;48.972;10.686;2022-10-16T03:10:37;13.40;99.90
45945;DHT22;31655;48.972;10.686;2022-10-16T03:13:02;13.30;99.90
45945;DHT22;31655;48.972;10.686;2022-10-16T03:15:28;13.30;99.90
45945;DHT22;31655;48.972;10.686;2022-10-16T03:20:20;13.20;99.90
45945;DHT22;31655;48.972;10.686;2022-10-16T03:25:12;13.20;99.90
45945;DHT22;31655;48.972;10.686;2022-10-16T03:27:37;13.20;99.90
45945;DHT22;31655;48.972;10.686;2022-10-16T03:30:03;13.20;99.90
45945;DHT22;31655;48.972;10.686;2022-10-16T03:32:29;13.20;99.90
45945;DHT22;31655;48.972;10.686;2022-10-16T03:34:54;13.20;99.90
45945;DHT22;31655;48.972;10.686;2022-10-16T03:37:21;13.20;99.90
45945;DHT22;31655;48.972;10.686;2022-10-16T03:47:05;13.20;99.90
45945;DHT22;31655;48.972;10.686;2022-10-16T03:49:30;13.30;99.90
45945;DHT22;31655;48.972;10.686;2022-10-16T03:51:56;13.30;99.90
45945;DHT22;31655;48.972;10.686;2022-10-16T03:56:48;13.40;99.90
45945;DHT22;31655;48.972;10.686;2022-10-16T03:59:14;13.40;99.90
45945;DHT22;31655;48.972;10.686;2022-10-16T04:01:40;13.40;99.90
45945;DHT22;31655;48.972;10.686;2022-10-16T04:04:07;13.40;99.90
45945;DHT22;31655;48.972;10.686;2022-10-16T04:06:32;13.40;99.90
45945;DHT22;31655;48.972;10.686;2022-10-16T04:08:59;13.40;99.90
45945;DHT22;31655;48.972;10.686;2022-10-16T04:11:24;13.40;99.90
45945;DHT22;31655;48.972;10.686;2022-10-16T04:13:50;13.50;99.90
45945;DHT22;31655;48.972;10.686;2022-10-16T04:16:16;13.50;99.90
45945;DHT22;31655;48.972;10.686;2022-10-16T04:21:07;13.50;99.90
45945;DHT22;31655;48.972;10.686;2022-10-16T04:23:33;13.50;99.90
45945;DHT22;31655;48.972;10.686;2022-10-16T04:25:59;13.50;99.90
45945;DHT22;31655;48.972;10.686;2022-10-16T04:28:25;13.50;99.90
45945;DHT22;31655;48.972;10.686;2022-10-16T04:30:51;13.50;99.90
45945;DHT22;31655;48.972;10.686;2022-10-16T04:33:17;13.50;99.90
45945;DHT22;31655;48.972;10.686;2022-10-16T04:36:00;13.50;99.90
45945;DHT22;31655;48.972;10.686;2022-10-16T04:38:28;13.50;99.90
45945;DHT22;31655;48.972;10.686;2022-10-16T04:40:56;13.50;99.90
45945;DHT22;31655;48.972;10.686;2022-10-16T04:45:48;13.50;99.90
45945;DHT22;31655;48.972;10.686;2022-10-16T04:48:15;13.40;99.90
45945;DHT22;31655;48.972;10.686;2022-10-16T04:53:07;13.30;99.90
45945;DHT22;31655;48.972;10.686;2022-10-16T04:55:33;13.30;99.90
45945;DHT22;31655;48.972;10.686;2022-10-16T04:57:59;13.20;99.90
45945;DHT22;31655;48.972;10.686;2022-10-16T05:00:24;13.30;99.90
45945;DHT22;31655;48.972;10.686;2022-10-16T05:02:50;13.20;99.90
45945;DHT22;31655;48.972;10.686;2022-10-16T05:05:16;13.20;99.90
45945;DHT22;31655;48.972;10.686;2022-10-16T05:07:45;13.20;99.90
45945;DHT22;31655;48.972;10.686;2022-10-16T05:10:10;13.10;99.90
45945;DHT22;31655;48.972;10.686;2022-10-16T05:12:36;13.10;99.90
45945;DHT22;31655;48.972;10.686;2022-10-16T05:15:02;13.00;99.90
45945;DHT22;31655;48.972;10.686;2022-10-16T05:17:28;13.00;99.90
45945;DHT22;31655;48.972;10.686;2022-10-16T05:22:21;12.90;99.90
45945;DHT22;31655;48.972;10.686;2022-10-16T05:24:47;12.80;99.90
45945;DHT22;31655;48.972;10.686;2022-10-16T05:27:14;12.80;99.90
45945;DHT22;31655;48.972;10.686;2022-10-16T05:29:48;12.80;99.90
45945;DHT22;31655;48.972;10.686;2022-10-16T05:32:15;12.70;99.90
45945;DHT22;31655;48.972;10.686;2022-10-16T05:34:42;12.70;99.90
45945;DHT22;31655;48.972;10.686;2022-10-16T05:37:08;12.70;99.90
45945;DHT22;31655;48.972;10.686;2022-10-16T05:39:33;12.70;99.90
45945;DHT22;31655;48.972;10.686;2022-10-16T05:41:59;12.70;99.90
45945;DHT22;31655;48.972;10.686;2022-10-16T05:44:25;12.80;99.90
45945;DHT22;31655;48.972;10.686;2022-10-16T05:46:50;12.80;99.90
45945;DHT22;31655;48.972;10.686;2022-10-16T05:49:16;12.80;99.90
45945;DHT22;31655;48.972;10.686;2022-10-16T05:51:42;12.80;99.90
45945;DHT22;31655;48.972;10.686;2022-10-16T05:54:08;12.70;99.90
45945;DHT22;31655;48.972;10.686;2022-10-16T05:56:34;12.80;99.90
45945;DHT22;31655;48.972;10.686;2022-10-16T05:58:59;12.70;99.90
45945;DHT22;31655;48.972;10.686;2022-10-16T06:03:51;12.80;99.90
45945;DHT22;31655;48.972;10.686;2022-10-16T06:06:22;12.80;99.90
45945;DHT22;31655;48.972;10.686;2022-10-16T06:08:49;12.90;99.90
45945;DHT22;31655;48.972;10.686;2022-10-16T06:11:17;13.00;99.90
45945;DHT22;31655;48.972;10.686;2022-10-16T06:13:43;13.00;99.90
45945;DHT22;31655;48.972;10.686;2022-10-16T06:16:12;13.20;99.90
45945;DHT22;31655;48.972;10.686;2022-10-16T06:18:38;13.30;99.90
45945;DHT22;31655;48.972;10.686;2022-10-16T06:21:11;13.50;99.90
45945;DHT22;31655;48.972;10.686;2022-10-16T06:23:37;13.60;99.90
45945;DHT22;31655;48.972;10.686;2022-10-16T06:26:14;13.70;99.90
45945;DHT22;31655;48.972;10.686;2022-10-16T06:28:41;13.90;99.90
45945;DHT22;31655;48.972;10.686;2022-10-16T06:31:08;13.90;99.90
45945;DHT22;31655;48.972;10.686;2022-10-16T06:33:35;14.20;99.90
45945;DHT22;31655;48.972;10.686;2022-10-16T06:36:06;14.50;99.90
45945;DHT22;31655;48.972;10.686;2022-10-16T06:38:32;14.80;99.90
45945;DHT22;31655;48.972;10.686;2022-10-16T06:40:58;15.10;99.90
45945;DHT22;31655;48.972;10.686;2022-10-16T06:43:24;15.50;99.90
45945;DHT22;31655;48.972;10.686;2022-10-16T06:45:52;15.70;99.90
45945;DHT22;31655;48.972;10.686;2022-10-16T06:48:18;15.60;99.90
45945;DHT22;31655;48.972;10.686;2022-10-16T06:50:43;15.40;99.90
45945;DHT22;31655;48.972;10.686;2022-10-16T06:53:09;15.20;99.90
45945;DHT22;31655;48.972;10.686;2022-10-16T06:55:34;14.90;99.90
45945;DHT22;31655;48.972;10.686;2022-10-16T06:58:00;14.90;99.90
45945;DHT22;31655;48.972;10.686;2022-10-16T07:00:27;14.80;99.90
45945;DHT22;31655;48.972;10.686;2022-10-16T07:02:52;14.60;99.90
45945;DHT22;31655;48.972;10.686;2022-10-16T07:05:18;14.60;99.90
45945;DHT22;31655;48.972;10.686;2022-10-16T07:07:43;14.60;99.90
45945;DHT22;31655;48.972;10.686;2022-10-16T07:12:35;14.60;99.90
45945;DHT22;31655;48.972;10.686;2022-10-16T07:15:00;14.70;99.90
45945;DHT22;31655;48.972;10.686;2022-10-16T07:17:26;14.90;99.90
45945;DHT22;31655;48.972;10.686;2022-10-16T07:19:52;15.10;99.90
45945;DHT22;31655;48.972;10.686;2022-10-16T07:22:18;15.30;99.90
45945;DHT22;31655;48.972;10.686;2022-10-16T07:24:44;15.40;99.90
45945;DHT22;31655;48.972;10.686;2022-10-16T07:27:10;15.60;99.90
45945;DHT22;31655;48.972;10.686;2022-10-16T07:29:35;15.60;99.90
45945;DHT22;31655;48.972;10.686;2022-10-16T07:32:01;15.80;99.90
45945;DHT22;31655;48.972;10.686;2022-10-16T07:34:27;15.90;99.90
45945;DHT22;31655;48.972;10.686;2022-10-16T07:36:54;16.00;99.90
45945;DHT22;31655;48.972;10.686;2022-10-16T07:41:47;16.20;99.90
45945;DHT22;31655;48.972;10.686;2022-10-16T07:44:13;16.30;99.90
45945;DHT22;31655;48.972;10.686;2022-10-16T07:46:38;16.60;99.90
45945;DHT22;31655;48.972;10.686;2022-10-16T07:49:04;17.10;99.90
45945;DHT22;31655;48.972;10.686;2022-10-16T07:51:30;17.60;99.90
45945;DHT22;31655;48.972;10.686;2022-10-16T07:53:56;18.60;99.90
45945;DHT22;31655;48.972;10.686;2022-10-16T07:56:22;20.00;99.90
45945;DHT22;31655;48.972;10.686;2022-10-16T07:58:48;21.10;99.90
45945;DHT22;31655;48.972;10.686;2022-10-16T08:01:16;21.70;99.90
45945;DHT22;31655;48.972;10.686;2022-10-16T08:03:49;22.10;99.90
45945;DHT22;31655;48.972;10.686;2022-10-16T08:06:16;21.60;99.90
45945;DHT22;31655;48.972;10.686;2022-10-16T08:08:42;20.80;99.90
45945;DHT22;31655;48.972;10.686;2022-10-16T08:11:08;19.80;99.90
45945;DHT22;31655;48.972;10.686;2022-10-16T08:13:34;19.10;99.90
45945;DHT22;31655;48.972;10.686;2022-10-16T08:16:00;18.80;99.90
45945;DHT22;31655;48.972;10.686;2022-10-16T08:18:26;18.60;99.90
45945;DHT22;31655;48.972;10.686;2022-10-16T08:20:59;18.50;99.90
45945;DHT22;31655;48.972;10.686;2022-10-16T08:23:26;18.40;99.90
45945;DHT22;31655;48.972;10.686;2022-10-16T08:25:56;18.40;99.90
45945;DHT22;31655;48.972;10.686;2022-10-16T08:28:22;18.10;99.90
45945;DHT22;31655;48.972;10.686;2022-10-16T08:30:48;18.10;99.90
45945;DHT22;31655;48.972;10.686;2022-10-16T08:33:14;18.10;99.90
45945;DHT22;31655;48.972;10.686;2022-10-16T08:35:40;18.20;99.90
45945;DHT22;31655;48.972;10.686;2022-10-16T08:38:06;18.30;99.90
45945;DHT22;31655;48.972;10.686;2022-10-16T08:40:34;18.40;99.90
45945;DHT22;31655;48.972;10.686;2022-10-16T08:46:29;19.10;99.90
45945;DHT22;31655;48.972;10.686;2022-10-16T08:48:53;19.30;99.90
45945;DHT22;31655;48.972;10.686;2022-10-16T08:51:21;19.50;99.90
45945;DHT22;31655;48.972;10.686;2022-10-16T08:54:36;19.60;99.90
45945;DHT22;31655;48.972;10.686;2022-10-16T08:56:55;19.60;99.90
45945;DHT22;31655;48.972;10.686;2022-10-16T08:59:22;19.80;99.90
45945;DHT22;31655;48.972;10.686;2022-10-16T09:01:50;19.90;99.90
45945;DHT22;31655;48.972;10.686;2022-10-16T09:15:19;19.40;99.90
45945;DHT22;31655;48.972;10.686;2022-10-16T09:18:01;19.10;99.90
45945;DHT22;31655;48.972;10.686;2022-10-16T09:23:18;18.70;99.90
45945;DHT22;31655;48.972;10.686;2022-10-16T09:25:48;18.50;99.90
45945;DHT22;31655;48.972;10.686;2022-10-16T09:28:15;18.60;99.90
45945;DHT22;31655;48.972;10.686;2022-10-16T09:30:41;18.60;99.90
45945;DHT22;31655;48.972;10.686;2022-10-16T09:33:09;18.90;99.90
45945;DHT22;31655;48.972;10.686;2022-10-16T09:35:43;18.90;99.90
45945;DHT22;31655;48.972;10.686;2022-10-16T09:38:27;18.70;99.90
45945;DHT22;31655;48.972;10.686;2022-10-16T09:40:54;18.60;99.90
45945;DHT22;31655;48.972;10.686;2022-10-16T09:46:20;18.80;99.90
45945;DHT22;31655;48.972;10.686;2022-10-16T09:48:51;18.70;99.90
45945;DHT22;31655;48.972;10.686;2022-10-16T09:51:29;18.70;99.90
45945;DHT22;31655;48.972;10.686;2022-10-16T09:56:33;18.40;99.90
45945;DHT22;31655;48.972;10.686;2022-10-16T09:59:08;18.50;99.90
45945;DHT22;31655;48.972;10.686;2022-10-16T10:01:53;18.60;99.90
45945;DHT22;31655;48.972;10.686;2022-10-16T10:04:24;18.60;99.90
45945;DHT22;31655;48.972;10.686;2022-10-16T10:06:51;18.70;99.90
45945;DHT22;31655;48.972;10.686;2022-10-16T10:09:27;18.80;99.90
45945;DHT22;31655;48.972;10.686;2022-10-16T10:11:55;18.90;99.90
45945;DHT22;31655;48.972;10.686;2022-10-16T10:14:27;19.00;99.90
45945;DHT22;31655;48.972;10.686;2022-10-16T10:19:45;19.20;99.90
45945;DHT22;31655;48.972;10.686;2022-10-16T10:22:29;19.00;99.90
45945;DHT22;31655;48.972;10.686;2022-10-16T10:32:49;18.90;99.90
45945;DHT22;31655;48.972;10.686;2022-10-16T10:35:37;19.20;99.90
45945;DHT22;31655;48.972;10.686;2022-10-16T10:41:01;19.70;99.90
45945;DHT22;31655;48.972;10.686;2022-10-16T10:46:22;20.10;99.90
45945;DHT22;31655;48.972;10.686;2022-10-16T10:49:03;20.40;99.90
45945;DHT22;31655;48.972;10.686;2022-10-16T10:51:46;20.30;99.90
45945;DHT22;31655;48.972;10.686;2022-10-16T10:56:56;20.50;99.90
45945;DHT22;31655;48.972;10.686;2022-10-16T11:10:38;20.90;99.90
45945;DHT22;31655;48.972;10.686;2022-10-16T11:15:59;21.00;99.90
45945;DHT22;31655;48.972;10.686;2022-10-16T11:18:49;20.90;99.90
45945;DHT22;31655;48.972;10.686;2022-10-16T11:21:14;20.90;99.90
45945;DHT22;31655;48.972;10.686;2022-10-16T11:26:14;21.10;99.90
45945;DHT22;31655;48.972;10.686;2022-10-16T11:28:51;20.90;99.90
45945;DHT22;31655;48.972;10.686;2022-10-16T11:31:45;21.10;99.90
45945;DHT22;31655;48.972;10.686;2022-10-16T11:37:11;21.10;99.90
45945;DHT22;31655;48.972;10.686;2022-10-16T11:39:39;21.10;99.90
45945;DHT22;31655;48.972;10.686;2022-10-16T11:47:41;21.50;99.90
45945;DHT22;31655;48.972;10.686;2022-10-16T11:50:31;21.70;99.90
45945;DHT22;31655;48.972;10.686;2022-10-16T11:55:45;21.20;99.90
45945;DHT22;31655;48.972;10.686;2022-10-16T11:58:36;21.10;99.90
45945;DHT22;31655;48.972;10.686;2022-10-16T12:01:22;20.90;99.90
45945;DHT22;31655;48.972;10.686;2022-10-16T12:04:14;20.80;99.90
45945;DHT22;31655;48.972;10.686;2022-10-16T12:06:59;20.80;99.90
45945;DHT22;31655;48.972;10.686;2022-10-16T12:09:32;20.80;99.90
45945;DHT22;31655;48.972;10.686;2022-10-16T12:11:58;20.90;99.90
45945;DHT22;31655;48.972;10.686;2022-10-16T12:17:00;21.00;99.90
45945;DHT22;31655;48.972;10.686;2022-10-16T12:19:29;21.00;99.90
45945;DHT22;31655;48.972;10.686;2022-10-16T12:21:57;21.20;99.90
45945;DHT22;31655;48.972;10.686;2022-10-16T12:24:36;21.10;99.90
45945;DHT22;31655;48.972;10.686;2022-10-16T12:27:05;21.10;99.90
45945;DHT22;31655;48.972;10.686;2022-10-16T12:29:39;21.20;99.90
45945;DHT22;31655;48.972;10.686;2022-10-16T12:34:50;21.20;99.90
45945;DHT22;31655;48.972;10.686;2022-10-16T12:37:34;21.30;99.90
45945;DHT22;31655;48.972;10.686;2022-10-16T12:40:34;21.30;99.90
45945;DHT22;31655;48.972;10.686;2022-10-16T12:42:59;21.40;99.90
45945;DHT22;31655;48.972;10.686;2022-10-16T12:45:36;21.10;99.90
45945;DHT22;31655;48.972;10.686;2022-10-16T12:48:04;21.10;99.90
45945;DHT22;31655;48.972;10.686;2022-10-16T12:50:42;21.10;99.90
45945;DHT22;31655;48.972;10.686;2022-10-16T12:53:24;21.10;99.90
45945;DHT22;31655;48.972;10.686;2022-10-16T13:15:30;22.30;99.90
45945;DHT22;31655;48.972;10.686;2022-10-16T13:18:22;22.40;99.90
45945;DHT22;31655;48.972;10.686;2022-10-16T13:20:57;22.40;99.90
45945;DHT22;31655;48.972;10.686;2022-10-16T13:23:38;22.20;99.90
45945;DHT22;31655;48.972;10.686;2022-10-16T13:26:20;22.20;99.90
45945;DHT22;31655;48.972;10.686;2022-10-16T13:28:47;22.30;99.90
45945;DHT22;31655;48.972;10.686;2022-10-16T13:31:19;22.20;99.90
45945;DHT22;31655;48.972;10.686;2022-10-16T13:33:49;22.10;99.90
45945;DHT22;31655;48.972;10.686;2022-10-16T13:36:30;22.50;99.90
45945;DHT22;31655;48.972;10.686;2022-10-16T13:39:06;22.80;99.90
45945;DHT22;31655;48.972;10.686;2022-10-16T13:41:35;22.50;99.90
45945;DHT22;31655;48.972;10.686;2022-10-16T13:44:00;22.70;99.90
45945;DHT22;31655;48.972;10.686;2022-10-16T13:46:26;22.90;99.90
45945;DHT22;31655;48.972;10.686;2022-10-16T13:49:02;22.90;99.90
45945;DHT22;31655;48.972;10.686;2022-10-16T13:51:28;23.00;99.90
45945;DHT22;31655;48.972;10.686;2022-10-16T13:53:57;22.60;99.90
45945;DHT22;31655;48.972;10.686;2022-10-16T13:56:29;22.60;99.90
45945;DHT22;31655;48.972;10.686;2022-10-16T13:59:06;22.40;99.90
45945;DHT22;31655;48.972;10.686;2022-10-16T14:01:41;22.40;99.90
45945;DHT22;31655;48.972;10.686;2022-10-16T14:04:09;22.50;99.90
45945;DHT22;31655;48.972;10.686;2022-10-16T14:06:36;22.60;99.90
45945;DHT22;31655;48.972;10.686;2022-10-16T14:09:07;22.30;99.90
45945;DHT22;31655;48.972;10.686;2022-10-16T14:11:50;21.90;99.90
45945;DHT22;31655;48.972;10.686;2022-10-16T14:14:19;21.70;99.90
45945;DHT22;31655;48.972;10.686;2022-10-16T14:19:27;21.10;99.90
45945;DHT22;31655;48.972;10.686;2022-10-16T14:21:56;21.00;99.90
45945;DHT22;31655;48.972;10.686;2022-10-16T14:24:42;20.90;99.90
45945;DHT22;31655;48.972;10.686;2022-10-16T14:27:33;20.90;99.90
45945;DHT22;31655;48.972;10.686;2022-10-16T14:30:11;20.90;99.90
45945;DHT22;31655;48.972;10.686;2022-10-16T14:32:40;20.90;99.90
45945;DHT22;31655;48.972;10.686;2022-10-16T14:35:27;21.00;99.90
45945;DHT22;31655;48.972;10.686;2022-10-16T14:37:54;21.20;99.90
45945;DHT22;31655;48.972;10.686;2022-10-16T14:40:24;21.20;99.90
45945;DHT22;31655;48.972;10.686;2022-10-16T14:42:50;21.30;99.90
45945;DHT22;31655;48.972;10.686;2022-10-16T14:45:22;21.40;99.90
45945;DHT22;31655;48.972;10.686;2022-10-16T14:48:16;21.30;99.90
45945;DHT22;31655;48.972;10.686;2022-10-16T14:50:42;21.30;99.90
45945;DHT22;31655;48.972;10.686;2022-10-16T14:53:11;21.20;99.90
45945;DHT22;31655;48.972;10.686;2022-10-16T14:55:38;21.20;99.90
45945;DHT22;31655;48.972;10.686;2022-10-16T14:58:04;21.10;99.90
45945;DHT22;31655;48.972;10.686;2022-10-16T15:00:30;21.10;99.90
45945;DHT22;31655;48.972;10.686;2022-10-16T15:02:55;21.10;99.90
45945;DHT22;31655;48.972;10.686;2022-10-16T15:05:26;21.20;99.90
45945;DHT22;31655;48.972;10.686;2022-10-16T15:07:53;21.20;99.90
45945;DHT22;31655;48.972;10.686;2022-10-16T15:10:20;21.10;99.90
45945;DHT22;31655;48.972;10.686;2022-10-16T15:12:47;20.90;99.90
45945;DHT22;31655;48.972;10.686;2022-10-16T15:17:57;20.70;99.90
45945;DHT22;31655;48.972;10.686;2022-10-16T15:20:28;20.40;99.90
45945;DHT22;31655;48.972;10.686;2022-10-16T15:22:55;20.40;99.90
45945;DHT22;31655;48.972;10.686;2022-10-16T15:27:59;20.30;99.90
45945;DHT22;31655;48.972;10.686;2022-10-16T15:30:26;20.20;99.90
45945;DHT22;31655;48.972;10.686;2022-10-16T15:32:52;20.10;99.90
45945;DHT22;31655;48.972;10.686;2022-10-16T15:35:18;20.10;99.90
45945;DHT22;31655;48.972;10.686;2022-10-16T15:37:46;19.90;99.90
45945;DHT22;31655;48.972;10.686;2022-10-16T15:40:12;19.80;99.90
45945;DHT22;31655;48.972;10.686;2022-10-16T15:42:37;19.60;99.90
45945;DHT22;31655;48.972;10.686;2022-10-16T15:45:03;19.50;99.90
45945;DHT22;31655;48.972;10.686;2022-10-16T16:02:09;18.60;99.90
45945;DHT22;31655;48.972;10.686;2022-10-16T16:07:02;18.50;99.90
45945;DHT22;31655;48.972;10.686;2022-10-16T16:09:31;18.50;99.90
45945;DHT22;31655;48.972;10.686;2022-10-16T16:11:56;18.40;99.90
45945;DHT22;31655;48.972;10.686;2022-10-16T16:14:25;18.40;99.90
45945;DHT22;31655;48.972;10.686;2022-10-16T16:16:53;18.30;99.90
45945;DHT22;31655;48.972;10.686;2022-10-16T16:19:19;18.20;99.90
45945;DHT22;31655;48.972;10.686;2022-10-16T16:21:47;18.20;99.90
45945;DHT22;31655;48.972;10.686;2022-10-16T16:24:12;18.10;99.90
45945;DHT22;31655;48.972;10.686;2022-10-16T16:26:38;18.10;99.90
45945;DHT22;31655;48.972;10.686;2022-10-16T16:29:11;18.10;99.90
45945;DHT22;31655;48.972;10.686;2022-10-16T16:36:29;18.00;99.90
45945;DHT22;31655;48.972;10.686;2022-10-16T16:38:56;18.00;99.90
45945;DHT22;31655;48.972;10.686;2022-10-16T16:41:24;17.90;99.90
45945;DHT22;31655;48.972;10.686;2022-10-16T16:48:44;17.80;99.90
45945;DHT22;31655;48.972;10.686;2022-10-16T16:51:16;17.70;99.90
45945;DHT22;31655;48.972;10.686;2022-10-16T16:53:44;17.70;99.90
45945;DHT22;31655;48.972;10.686;2022-10-16T16:56:10;17.60;99.90
45945;DHT22;31655;48.972;10.686;2022-10-16T16:58:36;17.60;99.90
45945;DHT22;31655;48.972;10.686;2022-10-16T17:01:02;17.60;99.90
45945;DHT22;31655;48.972;10.686;2022-10-16T17:03:34;17.60;99.90
45945;DHT22;31655;48.972;10.686;2022-10-16T17:06:07;17.60;99.90
45945;DHT22;31655;48.972;10.686;2022-10-16T17:08:36;17.60;99.90
45945;DHT22;31655;48.972;10.686;2022-10-16T17:11:03;17.60;99.90
45945;DHT22;31655;48.972;10.686;2022-10-16T17:13:31;17.70;99.90
45945;DHT22;31655;48.972;10.686;2022-10-16T17:16:00;17.60;99.90
45945;DHT22;31655;48.972;10.686;2022-10-16T17:18:26;17.60;99.90
45945;DHT22;31655;48.972;10.686;2022-10-16T17:20:52;17.60;99.90
45945;DHT22;31655;48.972;10.686;2022-10-16T17:23:19;17.60;99.90
45945;DHT22;31655;48.972;10.686;2022-10-16T17:25:45;17.60;99.90
45945;DHT22;31655;48.972;10.686;2022-10-16T17:28:12;17.60;99.90
45945;DHT22;31655;48.972;10.686;2022-10-16T17:30:40;17.60;99.90
45945;DHT22;31655;48.972;10.686;2022-10-16T17:33:06;17.50;99.90
45945;DHT22;31655;48.972;10.686;2022-10-16T17:35:43;17.50;99.90
45945;DHT22;31655;48.972;10.686;2022-10-16T17:38:10;17.50;99.90
45945;DHT22;31655;48.972;10.686;2022-10-16T17:40:37;17.40;99.90
45945;DHT22;31655;48.972;10.686;2022-10-16T17:43:03;17.40;99.90
45945;DHT22;31655;48.972;10.686;2022-10-16T17:45:29;17.40;99.90
45945;DHT22;31655;48.972;10.686;2022-10-16T17:47:57;17.40;99.90
45945;DHT22;31655;48.972;10.686;2022-10-16T17:50:23;17.40;99.90
45945;DHT22;31655;48.972;10.686;2022-10-16T17:52:49;17.20;99.90
45945;DHT22;31655;48.972;10.686;2022-10-16T17:55:14;17.10;99.90
45945;DHT22;31655;48.972;10.686;2022-10-16T18:00:07;16.90;99.90
45945;DHT22;31655;48.972;10.686;2022-10-16T18:02:32;16.80;99.90
45945;DHT22;31655;48.972;10.686;2022-10-16T18:04:58;16.80;99.90
45945;DHT22;31655;48.972;10.686;2022-10-16T18:07:25;16.80;99.90
45945;DHT22;31655;48.972;10.686;2022-10-16T18:09:51;16.80;99.90
45945;DHT22;31655;48.972;10.686;2022-10-16T18:12:17;16.70;99.90
45945;DHT22;31655;48.972;10.686;2022-10-16T18:14:43;16.70;99.90
45945;DHT22;31655;48.972;10.686;2022-10-16T18:17:09;16.70;99.90
45945;DHT22;31655;48.972;10.686;2022-10-16T18:19:35;16.80;99.90
45945;DHT22;31655;48.972;10.686;2022-10-16T18:22:00;16.80;99.90
45945;DHT22;31655;48.972;10.686;2022-10-16T18:24:26;16.80;99.90
45945;DHT22;31655;48.972;10.686;2022-10-16T18:26:54;17.00;99.90
45945;DHT22;31655;48.972;10.686;2022-10-16T18:29:24;17.00;99.90
45945;DHT22;31655;48.972;10.686;2022-10-16T18:31:50;17.00;99.90
45945;DHT22;31655;48.972;10.686;2022-10-16T18:34:16;17.20;99.90
45945;DHT22;31655;48.972;10.686;2022-10-16T18:36:43;17.30;99.90
45945;DHT22;31655;48.972;10.686;2022-10-16T18:39:09;17.40;99.90
45945;DHT22;31655;48.972;10.686;2022-10-16T18:41:40;17.30;99.90